Titusville, New Jersey
Current Conditions -  °F | °C
As of 8:53 AM on Monday 24 Nov 2014 (Local Time) from KTTN Reporting Station
Overcast Overcast  
Wind Chill: 66°   Ceiling: 1600
Heat Index: 66°   Visibility: 10mi
Dew Point: 61°   Wind: 21mph
Humidity: 84%   Direction: 210°SSW
Pressure: 29.67"   Gusts: 32mph
Location:  40.31°N, 74.88°W
Report Text: KTTN 241353Z 21018G28KT 10SM BKN016 BKN023 OVC038 19/16 A2967 RMK AO2 PK WND 21028/1348 SLP042 T01890161
Loading
Personal Weather Stations






























Interactive Weather Map New forecast layout! Learn more

10-Day Weather Forecast

Advertisements
Track Severe Weather on mobile